| Date | Time | Temp. (oF) | Dew Point (oF) | Rel. Hum. (%) | Press. (in.) | Wind Dir. | Wind Speed (mph) | Hourly Rainfall (in.) |
|
|---|---|---|---|---|---|---|---|---|---|
| 1 | 07/11 | 00:00 | 70 | 63 | 79 | 29.97 | SW | 0 | 0.00 |
| 2 | 07/10 | 23:00 | 71 | 61 | 73 | 29.97 | SW | 0 | 0.00 |
| 3 | 07/10 | 22:00 | 74 | 60 | 62 | 29.96 | WNW | 0 | 0.00 |
| 4 | 07/10 | 21:00 | 76 | 59 | 56 | 29.94 | WNW | 0 | 0.00 |
| 5 | 07/10 | 20:00 | 79 | 59 | 51 | 29.94 | N | 2 | 0.00 |
| 6 | 07/10 | 19:00 | 81 | 61 | 51 | 29.92 | W | 2 | 0.00 |
| 7 | 07/10 | 18:00 | 81 | 59 | 49 | 29.91 | NE | 4 | 0.00 |
| 8 | 07/10 | 17:00 | 81 | 58 | 46 | 29.92 | NE | 4 | 0.00 |
| 9 | 07/10 | 16:00 | 81 | 58 | 46 | 29.94 | WNW | 4 | 0.00 |
| 10 | 07/10 | 15:00 | 81 | 56 | 44 | 29.95 | NW | 3 | 0.00 |
| 11 | 07/10 | 14:00 | 81 | 59 | 48 | 29.96 | WSW | 5 | 0.00 |
| 12 | 07/10 | 13:00 | 80 | 58 | 48 | 29.97 | N | 4 | 0.00 |
| 13 | 07/10 | 12:00 | 78 | 59 | 53 | 29.98 | WNW | 11 | 0.00 |
| 14 | 07/10 | 11:00 | 76 | 59 | 57 | 29.98 | NE | 10 | 0.00 |
| 15 | 07/10 | 10:00 | 74 | 59 | 61 | 29.97 | NNE | 3 | 0.00 |
| 16 | 07/10 | 09:00 | 71 | 58 | 64 | 29.96 | NNE | 5 | 0.00 |
| 17 | 07/10 | 08:00 | 68 | 58 | 72 | 29.95 | WNW | 1 | 0.00 |
| 18 | 07/10 | 07:00 | 67 | 59 | 77 | 29.93 | WSW | 3 | 0.00 |
| 19 | 07/10 | 06:00 | 68 | 59 | 75 | 29.91 | N | 4 | 0.00 |
| 20 | 07/10 | 05:00 | 68 | 60 | 77 | 29.89 | WSW | 1 | 0.00 |
| 21 | 07/10 | 04:00 | 69 | 61 | 77 | 29.87 | WNW | 4 | 0.00 |
| 22 | 07/10 | 03:00 | 71 | 63 | 78 | 29.85 | NNE | 6 | 0.00 |
| 23 | 07/10 | 02:00 | 73 | 67 | 82 | 29.83 | WNW | 2 | 0.00 |
| 24 | 07/10 | 01:00 | 74 | 68 | 83 | 29.82 | N | 3 | 0.00 |